createdAt,value
2023-05-18T00:01:41.878Z,101259.91
2023-05-18T00:04:10.064Z,101251.94
2023-05-18T00:06:38.011Z,101263.72
2023-05-18T00:09:05.564Z,101258.38
2023-05-18T00:11:33.640Z,101262.16
2023-05-18T00:14:01.064Z,101262.16
2023-05-18T00:16:30.156Z,101267.16
2023-05-18T00:18:57.586Z,101276.81
2023-05-18T00:21:30.601Z,101266.69
2023-05-18T00:23:58.483Z,101272.56
2023-05-18T00:26:26.596Z,101276.19
2023-05-18T00:28:54.088Z,101277.00
2023-05-18T00:31:21.527Z,101271.72
2023-05-18T00:33:50.467Z,101278.97
2023-05-18T00:36:17.926Z,101277.13
2023-05-18T00:38:45.369Z,101267.47
2023-05-18T00:41:13.021Z,101281.16
2023-05-18T00:43:41.465Z,101286.97
2023-05-18T00:46:08.973Z,101287.88
2023-05-18T00:48:36.730Z,101282.56
2023-05-18T00:51:05.830Z,101290.88
2023-05-18T00:53:33.760Z,101287.72
2023-05-18T00:56:01.466Z,101295.47
2023-05-18T00:58:28.986Z,101294.97
2023-05-18T01:00:56.576Z,101296.75
2023-05-18T01:03:26.226Z,101301.53
2023-05-18T01:05:55.693Z,101304.06
2023-05-18T01:08:25.298Z,101309.22
2023-05-18T01:11:01.340Z,101299.16
2023-05-18T01:13:40.603Z,101304.34
2023-05-18T01:16:11.239Z,101312.53
2023-05-18T01:18:47.524Z,101303.25
2023-05-18T01:21:25.452Z,101306.66
2023-05-18T01:24:05.911Z,101309.00
2023-05-18T01:26:37.492Z,101313.84
2023-05-18T01:29:07.898Z,101311.66
2023-05-18T01:31:35.748Z,101316.81
2023-05-18T01:34:03.556Z,101307.41
2023-05-18T01:36:31.537Z,101316.25
2023-05-18T01:39:01.785Z,101319.25
2023-05-18T01:41:30.889Z,101327.78
2023-05-18T01:44:05.482Z,101316.00
2023-05-18T01:46:37.577Z,101316.72
2023-05-18T01:49:14.570Z,101321.06
2023-05-18T01:51:46.198Z,101317.22
2023-05-18T01:54:17.464Z,101312.69
2023-05-18T01:56:47.952Z,101318.69
2023-05-18T01:59:18.050Z,101310.47
2023-05-18T02:01:45.875Z,101316.34
2023-05-18T02:04:13.442Z,101305.59
2023-05-18T02:06:40.961Z,101318.50
2023-05-18T02:09:09.046Z,101325.88
2023-05-18T02:11:36.540Z,101324.75
2023-05-18T02:14:04.041Z,101318.53
2023-05-18T02:16:33.235Z,101327.22
2023-05-18T02:19:01.151Z,101326.22
2023-05-18T02:21:28.774Z,101323.28
2023-05-18T02:23:56.216Z,101327.25
2023-05-18T02:26:23.728Z,101313.84
2023-05-18T02:28:51.183Z,101329.63
2023-05-18T02:31:18.656Z,101322.84
2023-05-18T02:33:47.398Z,101339.06
2023-05-18T02:36:18.497Z,101343.31
2023-05-18T02:38:45.928Z,101344.28
2023-05-18T02:41:13.389Z,101340.88
2023-05-18T02:43:40.985Z,101336.84
2023-05-18T02:46:08.494Z,101339.91
2023-05-18T02:48:36.001Z,101341.03
2023-05-18T02:51:04.975Z,101353.59
2023-05-18T02:53:32.406Z,101348.59
2023-05-18T02:56:03.224Z,101351.63
2023-05-18T02:58:31.066Z,101350.81
2023-05-18T03:00:59.917Z,101352.00
2023-05-18T03:03:27.449Z,101344.59
2023-05-18T03:05:55.074Z,101351.31
2023-05-18T03:08:26.732Z,101356.53
2023-05-18T03:10:54.231Z,101353.69
2023-05-18T03:13:21.808Z,101358.16
2023-05-18T03:15:50.838Z,101354.47
2023-05-18T03:18:18.988Z,101359.59
2023-05-18T03:20:46.494Z,101363.00
2023-05-18T03:23:13.939Z,101355.75
2023-05-18T03:25:43.187Z,101364.72
2023-05-18T03:28:10.646Z,101362.75
2023-05-18T03:30:38.105Z,101359.16
2023-05-18T03:33:05.640Z,101366.44
2023-05-18T03:35:33.988Z,101370.94
2023-05-18T03:38:01.419Z,101366.69
2023-05-18T03:40:29.197Z,101370.28
2023-05-18T03:42:58.016Z,101374.50
2023-05-18T03:45:25.553Z,101366.75
2023-05-18T03:47:53.003Z,101383.78
2023-05-18T03:50:21.226Z,101374.25
2023-05-18T03:52:48.650Z,101386.56
2023-05-18T03:55:17.252Z,101389.59
2023-05-18T03:57:44.678Z,101385.25
2023-05-18T04:00:14.404Z,101380.81
2023-05-18T04:02:42.200Z,101379.81
2023-05-18T04:05:10.261Z,101384.56
2023-05-18T04:07:43.865Z,101392.63
2023-05-18T04:10:12.490Z,101383.81
2023-05-18T04:12:40.436Z,101394.28
2023-05-18T04:15:09.174Z,101387.34
2023-05-18T04:17:39.705Z,101393.53
2023-05-18T04:20:13.755Z,101402.31
2023-05-18T04:22:46.405Z,101403.59
2023-05-18T04:25:14.303Z,101395.38
2023-05-18T04:27:43.185Z,101390.31
2023-05-18T04:30:11.854Z,101391.66
2023-05-18T04:32:43.242Z,101390.97
2023-05-18T04:35:12.049Z,101395.09
2023-05-18T04:37:41.175Z,101393.84
2023-05-18T04:40:13.681Z,101398.31
2023-05-18T04:42:45.333Z,101395.28
2023-05-18T04:45:15.685Z,101394.06
2023-05-18T04:47:46.455Z,101394.59
2023-05-18T04:50:15.869Z,101392.63
2023-05-18T04:52:48.701Z,101399.25
2023-05-18T04:55:22.817Z,101403.34
2023-05-18T04:57:51.084Z,101404.47
2023-05-18T05:00:19.479Z,101400.22
2023-05-18T05:02:48.290Z,101403.84
2023-05-18T05:05:15.802Z,101399.72
2023-05-18T05:07:43.267Z,101409.50
2023-05-18T05:10:11.307Z,101408.84
2023-05-18T05:12:39.029Z,101404.81
2023-05-18T05:15:07.541Z,101403.03
2023-05-18T05:17:35.206Z,101409.00
2023-05-18T05:20:04.213Z,101405.03
2023-05-18T05:22:31.673Z,101411.22
2023-05-18T05:24:59.106Z,101410.13
2023-05-18T05:27:26.848Z,101418.84
2023-05-18T05:29:54.365Z,101407.31
2023-05-18T05:32:21.825Z,101406.09
2023-05-18T05:34:50.398Z,101414.44
2023-05-18T05:37:19.669Z,101412.13
2023-05-18T05:39:47.151Z,101419.06
2023-05-18T05:42:15.088Z,101413.69
2023-05-18T05:44:42.838Z,101415.16
2023-05-18T05:47:10.746Z,101409.09
2023-05-18T05:49:38.339Z,101408.59
2023-05-18T05:52:06.298Z,101412.19
2023-05-18T05:54:35.129Z,101414.66
2023-05-18T05:57:03.891Z,101411.63
2023-05-18T05:59:31.372Z,101409.91
2023-05-18T06:01:59.122Z,101412.94
2023-05-18T06:04:26.856Z,101422.75
2023-05-18T06:06:54.408Z,101415.56
2023-05-18T06:09:21.904Z,101418.03
2023-05-18T06:11:50.728Z,101415.06
2023-05-18T06:14:18.256Z,101416.72
2023-05-18T06:16:45.839Z,101418.69
2023-05-18T06:19:13.495Z,101426.84
2023-05-18T06:21:40.986Z,101432.84
2023-05-18T06:24:08.888Z,101429.09
2023-05-18T06:26:36.318Z,101433.22
2023-05-18T06:29:05.560Z,101425.91
2023-05-18T06:31:33.238Z,101428.91
2023-05-18T06:34:00.701Z,101439.16
2023-05-18T06:36:28.194Z,101437.41
2023-05-18T06:38:55.753Z,101433.69
2023-05-18T06:41:23.182Z,101437.84
2023-05-18T06:43:51.520Z,101436.16
2023-05-18T06:46:23.660Z,101434.75
2023-05-18T06:48:51.335Z,101434.19
2023-05-18T06:51:19.066Z,101451.13
2023-05-18T06:53:48.268Z,101450.38
2023-05-18T06:56:16.692Z,101455.84
2023-05-18T06:58:44.331Z,101454.88
2023-05-18T07:01:12.416Z,101438.50
2023-05-18T07:03:46.700Z,101445.72
2023-05-18T07:06:14.188Z,101449.47
2023-05-18T07:08:41.677Z,101440.97
2023-05-18T07:11:09.973Z,101444.22
2023-05-18T07:13:37.411Z,101443.72
2023-05-18T07:16:05.023Z,101442.59
2023-05-18T07:18:33.910Z,101440.53
2023-05-18T07:21:02.702Z,101436.41
2023-05-18T07:23:30.368Z,101445.81
2023-05-18T07:25:58.312Z,101442.22
2023-05-18T07:28:25.887Z,101437.19
2023-05-18T07:30:53.334Z,101428.50
2023-05-18T07:33:20.946Z,101416.56
2023-05-18T07:35:48.433Z,101419.06
2023-05-18T07:38:17.664Z,101424.63
2023-05-18T07:40:45.730Z,101433.41
2023-05-18T07:43:13.266Z,101425.31
2023-05-18T07:45:40.710Z,101423.81
2023-05-18T07:48:08.798Z,101426.22
2023-05-18T07:50:36.786Z,101432.16
2023-05-18T07:53:04.362Z,101424.81
2023-05-18T07:55:33.496Z,101425.50
2023-05-18T07:58:01.893Z,101433.50
2023-05-18T08:00:29.537Z,101430.66
2023-05-18T08:02:57.166Z,101423.94
2023-05-18T08:05:24.731Z,101415.38
2023-05-18T08:07:52.611Z,101428.75
2023-05-18T08:10:20.114Z,101426.81
2023-05-18T08:12:48.905Z,101425.00
2023-05-18T08:15:17.619Z,101425.88
2023-05-18T08:17:45.079Z,101417.59
2023-05-18T08:20:13.564Z,101416.44
2023-05-18T08:22:41.130Z,101417.31
2023-05-18T08:25:10.206Z,101400.63
2023-05-18T08:27:37.731Z,101414.94
2023-05-18T08:30:08.200Z,101417.59
2023-05-18T08:32:36.999Z,101415.38
2023-05-18T08:35:04.852Z,101417.53
2023-05-18T08:37:32.660Z,101419.00
2023-05-18T08:40:00.546Z,101403.66
2023-05-18T08:42:46.084Z,101410.72
2023-05-18T08:45:24.602Z,101413.44
2023-05-18T08:47:53.382Z,101424.50
2023-05-18T08:50:24.300Z,101421.00
2023-05-18T08:52:55.979Z,101424.13
2023-05-18T08:55:24.218Z,101415.81
2023-05-18T08:57:56.613Z,101412.66
2023-05-18T09:00:26.104Z,101400.94
2023-05-18T09:02:54.143Z,101413.78
2023-05-18T09:05:23.911Z,101405.59
2023-05-18T09:07:52.077Z,101408.75
2023-05-18T09:10:20.003Z,101400.50
2023-05-18T09:12:48.349Z,101408.75
2023-05-18T09:15:17.497Z,101405.28
2023-05-18T09:17:46.311Z,101400.25
2023-05-18T09:20:14.362Z,101394.28
2023-05-18T09:22:41.973Z,101394.78
2023-05-18T09:25:10.638Z,101394.09
2023-05-18T09:27:38.656Z,101400.00
2023-05-18T09:30:11.742Z,101393.41
2023-05-18T09:32:39.785Z,101394.91
2023-05-18T09:35:09.801Z,101397.19
2023-05-18T09:37:37.270Z,101389.19
2023-05-18T09:40:06.624Z,101397.94
2023-05-18T09:42:38.129Z,101394.22
2023-05-18T09:45:15.774Z,101392.59
2023-05-18T09:47:43.231Z,101381.44
2023-05-18T09:50:12.320Z,101395.28
2023-05-18T09:52:43.040Z,101391.38
2023-05-18T09:55:11.246Z,101390.19
2023-05-18T09:57:44.046Z,101393.56
2023-05-18T10:00:12.796Z,101392.34
2023-05-18T10:02:41.289Z,101387.31
2023-05-18T10:05:20.358Z,101388.06
2023-05-18T10:07:48.491Z,101395.59
2023-05-18T10:10:19.269Z,101401.41
2023-05-18T10:12:46.929Z,101383.94
2023-05-18T10:15:16.429Z,101386.53
2023-05-18T10:17:45.101Z,101383.63
2023-05-18T10:20:18.521Z,101389.16
2023-05-18T10:22:47.405Z,101382.78
2023-05-18T10:25:20.241Z,101381.16
2023-05-18T10:27:50.034Z,101369.78
2023-05-18T10:30:18.543Z,101388.84
2023-05-18T10:32:47.182Z,101366.84
2023-05-18T10:35:17.041Z,101358.66
2023-05-18T10:37:48.270Z,101366.03
2023-05-18T10:40:16.291Z,101358.41
2023-05-18T10:42:44.437Z,101355.84
2023-05-18T10:45:11.998Z,101365.66
2023-05-18T10:47:42.606Z,101352.13
2023-05-18T10:50:11.298Z,101357.53
2023-05-18T10:52:42.395Z,101354.72
2023-05-18T10:55:10.500Z,101350.59
2023-05-18T10:57:41.787Z,101355.00
2023-05-18T11:00:11.224Z,101357.84
2023-05-18T11:02:42.852Z,101341.91
2023-05-18T11:05:11.545Z,101344.88
2023-05-18T11:07:41.651Z,101344.59
2023-05-18T11:10:11.440Z,101351.91
2023-05-18T11:12:41.313Z,101359.25
2023-05-18T11:15:10.024Z,101344.00
2023-05-18T11:17:37.530Z,101361.72
2023-05-18T11:20:17.463Z,101347.03
2023-05-18T11:22:51.408Z,101343.53
2023-05-18T11:25:45.834Z,101334.75
2023-05-18T11:28:14.570Z,101328.59
2023-05-18T11:30:50.908Z,101331.59
2023-05-18T11:33:23.361Z,101329.06
2023-05-18T11:35:58.835Z,101319.97
2023-05-18T11:38:47.851Z,101328.69
2023-05-18T11:41:32.698Z,101316.97
2023-05-18T11:44:16.000Z,101332.00
2023-05-18T11:46:54.120Z,101342.31
2023-05-18T11:49:23.522Z,101336.38
2023-05-18T11:52:17.030Z,101322.19
2023-05-18T11:54:47.957Z,101319.88
2023-05-18T11:57:18.493Z,101336.19
2023-05-18T11:59:48.199Z,101334.81
2023-05-18T12:02:21.372Z,101329.50
2023-05-18T12:04:51.096Z,101326.50
2023-05-18T12:07:19.719Z,101328.44
2023-05-18T12:09:49.521Z,101326.34
2023-05-18T12:12:20.355Z,101301.00
2023-05-18T12:14:55.400Z,101311.53
2023-05-18T12:17:24.377Z,101312.66
2023-05-18T12:19:52.063Z,101303.47
2023-05-18T12:22:19.705Z,101303.06
2023-05-18T12:24:52.420Z,101298.94
2023-05-18T12:27:22.887Z,101304.66
2023-05-18T12:29:50.957Z,101305.81
2023-05-18T12:32:18.662Z,101311.97
2023-05-18T12:34:46.169Z,101305.72
2023-05-18T12:37:13.792Z,101298.13
2023-05-18T12:39:41.246Z,101302.59
2023-05-18T12:42:15.522Z,101304.66
2023-05-18T12:44:44.683Z,101306.25
2023-05-18T12:47:13.157Z,101316.50
2023-05-18T12:49:42.319Z,101305.31
2023-05-18T12:52:12.129Z,101298.53
2023-05-18T12:54:54.859Z,101302.34
2023-05-18T12:57:26.977Z,101295.13
2023-05-18T12:59:54.893Z,101295.44
2023-05-18T13:02:32.841Z,101292.66
2023-05-18T13:05:04.769Z,101300.31
2023-05-18T13:07:34.343Z,101287.59
2023-05-18T13:10:02.731Z,101289.88
2023-05-18T13:12:46.101Z,101286.28
2023-05-18T13:15:15.960Z,101291.22
2023-05-18T13:17:56.380Z,101299.91
2023-05-18T13:20:24.018Z,101308.72
2023-05-18T13:22:52.045Z,101301.91
2023-05-18T13:25:19.586Z,101302.38
2023-05-18T13:27:49.527Z,101286.97
2023-05-18T13:30:19.224Z,101288.19
2023-05-18T13:32:46.785Z,101295.41
2023-05-18T13:35:14.404Z,101292.31
2023-05-18T13:37:42.401Z,101285.41
2023-05-18T13:40:11.018Z,101288.63
2023-05-18T13:42:38.598Z,101293.03
2023-05-18T13:45:08.984Z,101279.53
2023-05-18T13:47:36.432Z,101288.16
2023-05-18T13:50:04.074Z,101277.66
2023-05-18T13:52:31.511Z,101277.84
2023-05-18T13:54:58.997Z,101281.91
2023-05-18T13:57:27.139Z,101289.03
2023-05-18T13:59:54.575Z,101284.75
2023-05-18T14:02:23.324Z,101276.66
2023-05-18T14:04:51.510Z,101282.66
2023-05-18T14:07:18.982Z,101281.13
2023-05-18T14:09:46.549Z,101276.47
2023-05-18T14:12:13.978Z,101273.03
2023-05-18T14:14:43.152Z,101267.81
2023-05-18T14:17:11.616Z,101273.13
2023-05-18T14:19:41.140Z,101279.28
2023-05-18T14:22:08.562Z,101277.66
2023-05-18T14:24:36.208Z,101281.28
2023-05-18T14:27:03.702Z,101279.50
2023-05-18T14:29:33.937Z,101277.00
2023-05-18T14:32:02.705Z,101280.91
2023-05-18T14:34:30.139Z,101276.19
2023-05-18T14:36:59.222Z,101266.81
2023-05-18T14:39:26.650Z,101269.66
2023-05-18T14:41:54.454Z,101264.44
2023-05-18T14:44:21.902Z,101262.75
2023-05-18T14:46:49.757Z,101251.72
2023-05-18T14:49:17.689Z,101255.16
2023-05-18T14:51:45.171Z,101258.72
2023-05-18T14:54:14.349Z,101246.00
2023-05-18T14:56:41.891Z,101244.38
2023-05-18T14:59:09.319Z,101240.03
2023-05-18T15:01:37.466Z,101254.19
2023-05-18T15:04:05.189Z,101259.50
2023-05-18T15:06:33.257Z,101249.28
2023-05-18T15:09:00.780Z,101241.59
2023-05-18T15:11:29.834Z,101225.88
2023-05-18T15:13:57.305Z,101237.44
2023-05-18T15:16:24.793Z,101236.06
2023-05-18T15:18:54.013Z,101247.28
2023-05-18T15:21:21.768Z,101254.84
2023-05-18T15:23:49.189Z,101245.53
2023-05-18T15:26:17.043Z,101250.63
2023-05-18T15:28:47.135Z,101245.06
2023-05-18T15:31:14.633Z,101236.34
2023-05-18T15:33:43.664Z,101251.81
2023-05-18T15:36:11.581Z,101257.72
2023-05-18T15:38:39.184Z,101239.75
2023-05-18T15:41:06.723Z,101239.72
2023-05-18T15:43:36.490Z,101239.28
2023-05-18T15:46:05.554Z,101237.66
2023-05-18T15:48:33.020Z,101246.16
2023-05-18T15:51:00.494Z,101237.34
2023-05-18T15:53:27.941Z,101234.44
2023-05-18T15:55:58.640Z,101226.00
2023-05-18T15:58:27.059Z,101236.09
2023-05-18T16:00:54.885Z,101231.53
2023-05-18T16:03:23.891Z,101224.97
2023-05-18T16:05:51.412Z,101226.44
2023-05-18T16:08:20.403Z,101223.56
2023-05-18T16:10:47.801Z,101226.41
2023-05-18T16:13:15.405Z,101219.72
2023-05-18T16:15:42.945Z,101223.25
2023-05-18T16:18:10.473Z,101216.66
2023-05-18T16:20:39.295Z,101212.66
2023-05-18T16:23:06.740Z,101211.22
2023-05-18T16:25:34.197Z,101202.56
2023-05-18T16:28:01.726Z,101209.25
2023-05-18T16:30:29.364Z,101202.31
2023-05-18T16:32:56.994Z,101212.91
2023-05-18T16:35:24.540Z,101199.28
2023-05-18T16:37:53.337Z,101207.16
2023-05-18T16:40:20.909Z,101210.09
2023-05-18T16:42:48.953Z,101211.94
2023-05-18T16:45:16.500Z,101202.84
2023-05-18T16:47:44.333Z,101208.88
2023-05-18T16:50:12.000Z,101220.84
2023-05-18T16:52:39.446Z,101203.16
2023-05-18T16:55:09.063Z,101203.56
2023-05-18T16:57:37.385Z,101213.38
2023-05-18T17:00:09.113Z,101207.63
2023-05-18T17:02:38.377Z,101215.56
2023-05-18T17:05:08.374Z,101220.28
2023-05-18T17:07:36.829Z,101215.00
2023-05-18T17:10:05.083Z,101216.69
2023-05-18T17:12:35.028Z,101217.31
2023-05-18T17:15:03.287Z,101221.16
2023-05-18T17:17:30.875Z,101216.56
2023-05-18T17:19:58.427Z,101225.00
2023-05-18T17:22:26.078Z,101222.75
2023-05-18T17:24:53.588Z,101211.81
2023-05-18T17:27:21.042Z,101215.16
2023-05-18T17:29:49.838Z,101213.22
2023-05-18T17:32:20.428Z,101221.53
2023-05-18T17:34:47.862Z,101220.91
2023-05-18T17:37:15.512Z,101216.13
2023-05-18T17:39:43.028Z,101216.78
2023-05-18T17:42:10.485Z,101220.53
2023-05-18T17:44:38.096Z,101223.00
2023-05-18T17:47:07.251Z,101219.78
2023-05-18T17:49:34.759Z,101219.00
2023-05-18T17:52:02.146Z,101220.63
2023-05-18T17:54:29.581Z,101224.81
2023-05-18T17:56:57.469Z,101217.41
2023-05-18T17:59:24.940Z,101226.06
2023-05-18T18:01:52.422Z,101221.13
2023-05-18T18:04:22.342Z,101221.28
2023-05-18T18:06:49.974Z,101231.25
2023-05-18T18:09:17.443Z,101225.13
2023-05-18T18:11:45.333Z,101227.63
2023-05-18T18:14:17.044Z,101225.94
2023-05-18T18:16:44.755Z,101217.75
2023-05-18T18:19:14.344Z,101221.94
2023-05-18T18:21:43.212Z,101222.81
2023-05-18T18:24:10.847Z,101226.22
2023-05-18T18:26:40.482Z,101222.81
2023-05-18T18:29:08.481Z,101223.84
2023-05-18T18:31:39.116Z,101227.50
2023-05-18T18:34:06.607Z,101233.97
2023-05-18T18:36:34.473Z,101232.31
2023-05-18T18:39:03.284Z,101226.00
2023-05-18T18:41:32.604Z,101235.47
2023-05-18T18:44:00.059Z,101231.63
2023-05-18T18:46:27.677Z,101230.56
2023-05-18T18:48:55.103Z,101231.50
2023-05-18T18:51:22.622Z,101228.78
2023-05-18T18:53:50.064Z,101225.78
2023-05-18T18:56:18.857Z,101226.59
2023-05-18T18:58:46.418Z,101238.03
2023-05-18T19:01:13.843Z,101245.31
2023-05-18T19:03:41.327Z,101235.97
2023-05-18T19:06:08.943Z,101241.09
2023-05-18T19:08:36.440Z,101245.22
2023-05-18T19:11:03.888Z,101251.53
2023-05-18T19:13:32.910Z,101239.72
2023-05-18T19:16:00.641Z,101253.38
2023-05-18T19:18:28.072Z,101260.09
2023-05-18T19:20:55.586Z,101251.75
2023-05-18T19:23:23.023Z,101257.91
2023-05-18T19:25:50.501Z,101264.63
2023-05-18T19:28:17.917Z,101264.13
2023-05-18T19:30:49.433Z,101277.03
2023-05-18T19:33:16.959Z,101280.69
2023-05-18T19:35:44.506Z,101276.47
2023-05-18T19:38:13.434Z,101268.25
2023-05-18T19:40:40.995Z,101280.78
2023-05-18T19:43:08.538Z,101272.97
2023-05-18T19:45:36.366Z,101283.72
2023-05-18T19:48:05.649Z,101275.78
2023-05-18T19:50:33.118Z,101284.34
2023-05-18T19:53:00.826Z,101277.31
2023-05-18T19:55:28.294Z,101285.66
2023-05-18T19:57:55.958Z,101287.09
2023-05-18T20:00:23.801Z,101291.81
2023-05-18T20:02:51.381Z,101288.38
2023-05-18T20:05:20.169Z,101291.47
2023-05-18T20:07:47.613Z,101286.34
2023-05-18T20:10:15.044Z,101289.97
2023-05-18T20:12:42.546Z,101288.94
2023-05-18T20:15:10.621Z,101282.03
2023-05-18T20:17:38.198Z,101288.25
2023-05-18T20:20:06.336Z,101291.03
2023-05-18T20:22:35.366Z,101297.22
2023-05-18T20:25:05.613Z,101293.50
2023-05-18T20:27:33.187Z,101298.03
2023-05-18T20:30:00.701Z,101293.31
2023-05-18T20:32:28.816Z,101296.16
2023-05-18T20:34:56.345Z,101288.09
2023-05-18T20:37:25.220Z,101292.88
2023-05-18T20:39:57.277Z,101302.09
2023-05-18T20:42:24.845Z,101295.78
2023-05-18T20:44:52.867Z,101297.44
2023-05-18T20:47:21.031Z,101288.78
2023-05-18T20:49:48.936Z,101297.44
2023-05-18T20:52:16.591Z,101298.97
2023-05-18T20:54:44.468Z,101306.38
2023-05-18T20:57:13.342Z,101296.94
2023-05-18T20:59:40.941Z,101300.47
2023-05-18T21:02:08.424Z,101291.47
2023-05-18T21:04:36.008Z,101297.72
2023-05-18T21:07:05.464Z,101293.75
2023-05-18T21:09:34.123Z,101301.19
2023-05-18T21:12:02.554Z,101309.66
2023-05-18T21:14:31.320Z,101302.88
2023-05-18T21:16:58.723Z,101306.16
2023-05-18T21:19:26.304Z,101310.78
2023-05-18T21:21:53.904Z,101302.44
2023-05-18T21:24:21.331Z,101302.59
2023-05-18T21:26:49.168Z,101292.06
2023-05-18T21:29:17.102Z,101302.66
2023-05-18T21:31:45.992Z,101296.56
2023-05-18T21:34:13.761Z,101300.50
2023-05-18T21:36:41.561Z,101307.06
2023-05-18T21:39:09.512Z,101299.16
2023-05-18T21:41:40.116Z,101291.13
2023-05-18T21:44:07.918Z,101296.44
2023-05-18T21:46:36.421Z,101299.13
2023-05-18T21:49:06.814Z,101300.94
2023-05-18T21:51:34.260Z,101294.66
2023-05-18T21:54:02.159Z,101285.41
2023-05-18T21:56:29.868Z,101295.09
2023-05-18T21:58:57.778Z,101296.88
2023-05-18T22:01:25.263Z,101290.44
2023-05-18T22:03:52.810Z,101286.28
2023-05-18T22:06:21.589Z,101287.38
2023-05-18T22:08:49.118Z,101289.84
2023-05-18T22:11:16.818Z,101281.69
2023-05-18T22:13:44.239Z,101292.63
2023-05-18T22:16:11.670Z,101282.44
2023-05-18T22:18:39.181Z,101277.66
2023-05-18T22:21:06.682Z,101284.03
2023-05-18T22:23:35.483Z,101275.03
2023-05-18T22:26:02.965Z,101269.50
2023-05-18T22:28:30.433Z,101274.28
2023-05-18T22:30:57.874Z,101272.03
2023-05-18T22:33:25.538Z,101277.56
2023-05-18T22:35:53.423Z,101276.97
2023-05-18T22:38:21.240Z,101276.16
2023-05-18T22:40:53.836Z,101271.41
2023-05-18T22:43:21.463Z,101273.34
2023-05-18T22:45:49.560Z,101264.00
2023-05-18T22:48:17.098Z,101274.31
2023-05-18T22:50:44.609Z,101269.41
2023-05-18T22:53:12.059Z,101271.50
2023-05-18T22:55:39.752Z,101267.41
2023-05-18T22:58:08.848Z,101267.59
2023-05-18T23:00:36.482Z,101262.94
2023-05-18T23:03:04.132Z,101266.44
2023-05-18T23:05:32.653Z,101262.56
2023-05-18T23:08:02.669Z,101262.84
2023-05-18T23:10:30.606Z,101266.81
2023-05-18T23:12:58.332Z,101271.06
2023-05-18T23:15:27.742Z,101267.63
2023-05-18T23:17:55.486Z,101266.16
2023-05-18T23:20:23.706Z,101272.72
2023-05-18T23:22:51.115Z,101272.44
2023-05-18T23:25:19.333Z,101267.19
2023-05-18T23:27:47.120Z,101270.97
2023-05-18T23:30:14.661Z,101271.44
2023-05-18T23:32:45.433Z,101270.97
2023-05-18T23:35:14.221Z,101269.97
2023-05-18T23:37:43.275Z,101267.19
2023-05-18T23:40:12.874Z,101267.00
2023-05-18T23:42:40.873Z,101271.44
2023-05-18T23:45:09.932Z,101273.41
2023-05-18T23:47:38.012Z,101264.53
2023-05-18T23:50:08.497Z,101263.03
2023-05-18T23:52:37.085Z,101262.75
2023-05-18T23:55:05.903Z,101255.97
2023-05-18T23:57:34.062Z,101250.03
